createdAt,value
2018-07-24T00:02:23.338Z,15.20
2018-07-24T00:04:54.331Z,15.30
2018-07-24T00:07:25.028Z,14.20
2018-07-24T00:09:56.033Z,16.70
2018-07-24T00:12:27.009Z,16.63
2018-07-24T00:14:57.992Z,16.23
2018-07-24T00:17:27.950Z,16.30
2018-07-24T00:19:58.685Z,15.03
2018-07-24T00:22:29.577Z,15.30
2018-07-24T00:25:00.427Z,15.63
2018-07-24T00:27:31.387Z,16.00
2018-07-24T00:30:02.467Z,14.70
2018-07-24T00:32:33.670Z,16.03
2018-07-24T00:35:04.479Z,16.90
2018-07-24T00:37:35.544Z,17.70
2018-07-24T00:40:06.769Z,17.93
2018-07-24T00:42:37.698Z,16.57
2018-07-24T00:45:08.516Z,14.43
2018-07-24T00:47:39.577Z,15.50
2018-07-24T00:50:10.564Z,16.67
2018-07-24T00:52:41.482Z,16.60
2018-07-24T00:55:12.260Z,16.33
2018-07-24T00:57:43.586Z,16.80
2018-07-24T01:00:14.571Z,15.47
2018-07-24T01:02:45.604Z,16.97
2018-07-24T01:05:16.614Z,16.87
2018-07-24T01:07:47.323Z,16.70
2018-07-24T01:10:18.330Z,17.43
2018-07-24T01:12:49.258Z,17.30
2018-07-24T01:15:20.159Z,16.63
2018-07-24T01:17:50.867Z,15.40
2018-07-24T01:20:21.596Z,16.93
2018-07-24T01:22:52.387Z,16.10
2018-07-24T01:25:23.392Z,16.70
2018-07-24T01:27:54.691Z,17.00
2018-07-24T01:30:25.723Z,16.33
2018-07-24T01:32:57.002Z,17.97
2018-07-24T01:35:27.907Z,17.50
2018-07-24T01:37:58.779Z,16.20
2018-07-24T01:40:29.020Z,16.80
2018-07-24T01:43:00.120Z,16.93
2018-07-24T01:45:31.447Z,18.60
2018-07-24T01:48:02.435Z,17.10
2018-07-24T01:50:33.172Z,17.23
2018-07-24T01:53:04.460Z,17.33
2018-07-24T01:55:35.467Z,16.57
2018-07-24T01:58:06.484Z,17.30
2018-07-24T02:00:37.820Z,16.97
2018-07-24T02:03:08.904Z,16.00
2018-07-24T02:05:39.905Z,18.03
2018-07-24T02:08:10.846Z,16.10
2018-07-24T02:10:41.894Z,17.20
2018-07-24T02:13:12.563Z,17.50
2018-07-24T02:15:43.922Z,17.57
2018-07-24T02:18:14.969Z,17.97
2018-07-24T02:20:45.956Z,18.00
2018-07-24T02:23:16.953Z,17.27
2018-07-24T02:25:47.909Z,16.40
2018-07-24T02:28:18.983Z,15.67
2018-07-24T02:30:50.244Z,16.80
2018-07-24T02:33:21.228Z,16.10
2018-07-24T02:35:52.495Z,15.37
2018-07-24T02:38:23.644Z,16.53
2018-07-24T02:40:54.785Z,17.30
2018-07-24T02:43:25.750Z,17.23
2018-07-24T02:45:57.080Z,17.47
2018-07-24T02:48:28.100Z,18.50
2018-07-24T02:50:59.143Z,17.07
2018-07-24T02:53:30.137Z,18.70
2018-07-24T02:56:05.603Z,19.17
2018-07-24T02:58:36.368Z,18.53
2018-07-24T03:01:07.615Z,19.50
2018-07-24T03:03:38.488Z,19.67
2018-07-24T03:06:11.881Z,18.80
2018-07-24T03:08:43.191Z,18.47
2018-07-24T03:11:14.173Z,17.47
2018-07-24T03:13:45.176Z,17.03
2018-07-24T03:16:16.446Z,18.23
2018-07-24T03:18:47.236Z,16.53
2018-07-24T03:21:18.243Z,16.77
2018-07-24T03:23:49.261Z,16.30
2018-07-24T03:26:20.264Z,18.07
2018-07-24T03:28:51.259Z,18.13
2018-07-24T03:31:22.219Z,18.00
2018-07-24T03:33:52.943Z,19.43
2018-07-24T03:36:23.916Z,18.33
2018-07-24T03:38:54.985Z,16.63
2018-07-24T03:41:26.005Z,17.83
2018-07-24T03:43:56.999Z,18.07
2018-07-24T03:46:28.050Z,17.83
2018-07-24T03:49:12.371Z,17.40
2018-07-24T03:51:43.387Z,17.87
2018-07-24T03:54:14.404Z,17.53
2018-07-24T03:56:45.404Z,16.77
2018-07-24T03:59:15.428Z,16.93
2018-07-24T04:01:45.657Z,17.53
2018-07-24T04:04:16.699Z,17.63
2018-07-24T04:06:47.656Z,17.47
2018-07-24T04:09:18.543Z,17.20
2018-07-24T04:12:06.171Z,19.30
2018-07-24T04:14:37.136Z,17.47
2018-07-24T04:17:07.786Z,17.07
2018-07-24T04:19:38.858Z,16.90
2018-07-24T04:22:09.813Z,16.23
2018-07-24T04:24:41.215Z,15.80
2018-07-24T04:27:12.224Z,15.57
2018-07-24T04:29:43.168Z,14.90
2018-07-24T04:32:14.051Z,14.57
2018-07-24T04:34:45.227Z,16.47
2018-07-24T04:37:16.256Z,15.17
2018-07-24T04:39:47.298Z,15.23
2018-07-24T04:42:18.631Z,14.97
2018-07-24T04:44:49.594Z,15.83
2018-07-24T04:47:20.651Z,15.40
2018-07-24T04:49:51.664Z,14.57
2018-07-24T04:52:22.654Z,14.00
2018-07-24T04:54:53.687Z,14.20
2018-07-24T04:57:24.699Z,14.63
2018-07-24T04:59:55.227Z,13.80
2018-07-24T05:02:28.291Z,13.83
2018-07-24T05:04:59.442Z,12.90
2018-07-24T05:07:30.431Z,13.23
2018-07-24T05:10:01.777Z,12.90
2018-07-24T05:12:32.444Z,13.73
2018-07-24T05:15:03.823Z,12.97
2018-07-24T05:17:34.807Z,13.67
2018-07-24T05:20:05.835Z,13.40
2018-07-24T05:22:36.847Z,13.13
2018-07-24T05:25:07.557Z,12.83
2018-07-24T05:27:41.894Z,13.73
2018-07-24T05:30:12.864Z,13.37
2018-07-24T05:32:43.824Z,13.77
2018-07-24T05:35:14.962Z,12.47
2018-07-24T05:37:46.549Z,11.73
2018-07-24T05:40:17.527Z,11.47
2018-07-24T05:42:48.103Z,11.67
2018-07-24T05:45:18.623Z,12.90
2018-07-24T05:47:49.640Z,11.80
2018-07-24T05:50:20.588Z,11.48
2018-07-24T05:52:51.032Z,10.40
2018-07-24T05:55:21.995Z,11.53
2018-07-24T05:57:52.932Z,11.10
2018-07-24T06:00:25.008Z,10.93
2018-07-24T06:02:55.950Z,10.00
2018-07-24T06:05:26.696Z,9.95
2018-07-24T06:07:57.161Z,10.45
2018-07-24T06:10:28.061Z,9.95
2018-07-24T06:13:12.238Z,9.75
2018-07-24T06:15:43.088Z,10.10
2018-07-24T06:18:13.812Z,10.23
2018-07-24T06:20:44.421Z,10.08
2018-07-24T06:23:15.255Z,9.53
2018-07-24T06:25:58.148Z,9.53
2018-07-24T06:28:28.858Z,9.98
2018-07-24T06:31:23.735Z,9.75
2018-07-24T06:34:02.215Z,9.70
2018-07-24T06:36:32.413Z,10.08
2018-07-24T06:39:03.315Z,10.45
2018-07-24T06:41:34.216Z,10.53
2018-07-24T06:44:05.789Z,10.03
2018-07-24T06:46:36.721Z,10.32
2018-07-24T06:49:07.879Z,9.53
2018-07-24T06:51:38.912Z,9.90
2018-07-24T06:54:09.501Z,9.75
2018-07-24T06:56:40.530Z,8.90
2018-07-24T06:59:10.983Z,8.45
2018-07-24T07:01:41.551Z,8.35
2018-07-24T07:04:18.369Z,8.28
2018-07-24T07:06:48.992Z,8.73
2018-07-24T07:09:19.505Z,8.58
2018-07-24T07:11:50.278Z,8.75
2018-07-24T07:14:20.977Z,9.18
2018-07-24T07:16:52.016Z,7.92
2018-07-24T07:19:23.017Z,7.90
2018-07-24T07:21:53.675Z,7.60
2018-07-24T07:24:24.657Z,8.48
2018-07-24T07:26:55.636Z,7.60
2018-07-24T07:29:26.711Z,7.95
2018-07-24T07:31:57.667Z,8.13
2018-07-24T07:34:28.740Z,7.45
2018-07-24T07:37:10.447Z,8.08
2018-07-24T07:39:40.855Z,7.67
2018-07-24T07:42:11.018Z,8.30
2018-07-24T07:44:41.609Z,7.60
2018-07-24T07:47:11.972Z,6.87
2018-07-24T07:49:42.050Z,7.35
2018-07-24T07:52:12.210Z,6.72
2018-07-24T07:54:42.679Z,6.95
2018-07-24T07:57:12.658Z,6.65
2018-07-24T07:59:43.065Z,6.78
2018-07-24T08:02:13.405Z,7.03
2018-07-24T08:04:43.503Z,6.72
2018-07-24T08:07:13.856Z,8.28
2018-07-24T08:09:44.221Z,7.22
2018-07-24T08:12:14.660Z,6.55
2018-07-24T08:14:44.861Z,6.12
2018-07-24T08:17:15.238Z,6.67
2018-07-24T08:19:45.620Z,6.62
2018-07-24T08:22:16.025Z,6.60
2018-07-24T08:24:46.584Z,6.40
2018-07-24T08:27:16.704Z,7.00
2018-07-24T08:29:46.870Z,6.22
2018-07-24T08:32:17.089Z,6.55
2018-07-24T08:34:47.209Z,6.80
2018-07-24T08:37:17.439Z,6.85
2018-07-24T08:39:47.554Z,6.10
2018-07-24T08:45:24.393Z,7.08
2018-07-24T08:47:54.951Z,6.28
2018-07-24T08:50:25.395Z,6.40
2018-07-24T08:52:55.967Z,6.80
2018-07-24T08:55:26.725Z,6.85
2018-07-24T08:57:56.931Z,6.37
2018-07-24T09:00:27.418Z,6.05
2018-07-24T09:02:58.099Z,5.92
2018-07-24T09:05:28.545Z,6.60
2018-07-24T09:07:59.108Z,5.85
2018-07-24T09:10:29.804Z,6.22
2018-07-24T09:13:00.309Z,6.15
2018-07-24T09:15:32.485Z,6.05
2018-07-24T09:18:03.019Z,6.67
2018-07-24T09:20:33.531Z,5.97
2018-07-24T09:23:03.992Z,6.25
2018-07-24T09:25:34.578Z,6.05
2018-07-24T09:28:05.031Z,6.10
2018-07-24T09:30:35.311Z,6.05
2018-07-24T09:33:05.827Z,5.85
2018-07-24T09:35:36.244Z,6.53
2018-07-24T09:38:07.245Z,6.12
2018-07-24T09:40:37.418Z,6.37
2018-07-24T09:43:07.735Z,5.80
2018-07-24T09:45:38.267Z,5.92
2018-07-24T09:48:08.877Z,6.15
2018-07-24T09:50:39.535Z,6.10
2018-07-24T09:53:16.095Z,5.42
2018-07-24T09:55:46.488Z,6.40
2018-07-24T09:58:16.787Z,5.55
2018-07-24T10:00:52.190Z,6.60
2018-07-24T10:03:22.544Z,6.12
2018-07-24T10:05:52.966Z,6.10
2018-07-24T10:08:23.552Z,6.50
2018-07-24T10:10:54.256Z,6.40
2018-07-24T10:13:24.360Z,6.10
2018-07-24T10:15:54.600Z,6.22
2018-07-24T10:18:24.969Z,6.45
2018-07-24T10:20:55.552Z,6.15
2018-07-24T10:23:26.004Z,6.05
2018-07-24T10:25:56.412Z,5.45
2018-07-24T10:28:26.832Z,6.58
2018-07-24T10:31:08.953Z,5.40
2018-07-24T10:33:39.442Z,5.33
2018-07-24T10:36:10.035Z,5.60
2018-07-24T10:38:40.599Z,5.72
2018-07-24T10:41:11.031Z,5.55
2018-07-24T10:43:41.383Z,5.58
2018-07-24T10:46:11.886Z,5.12
2018-07-24T10:48:55.927Z,5.47
2018-07-24T10:51:29.294Z,4.90
2018-07-24T10:53:59.760Z,4.85
2018-07-24T10:56:30.132Z,4.95
2018-07-24T10:59:00.417Z,5.70
2018-07-24T11:01:30.658Z,4.53
2018-07-24T11:04:00.943Z,4.78
2018-07-24T11:06:31.259Z,4.55
2018-07-24T11:09:09.562Z,4.97
2018-07-24T11:11:39.927Z,4.22
2018-07-24T11:14:10.178Z,4.55
2018-07-24T11:16:48.234Z,4.28
2018-07-24T11:19:18.527Z,4.50
2018-07-24T11:21:48.906Z,4.37
2018-07-24T11:24:19.186Z,4.50
2018-07-24T11:26:49.461Z,4.37
2018-07-24T11:29:43.406Z,4.35
2018-07-24T11:32:13.374Z,4.72
2018-07-24T11:34:43.582Z,4.80
2018-07-24T11:37:13.870Z,4.20
2018-07-24T11:39:44.167Z,4.55
2018-07-24T11:42:15.338Z,4.20
2018-07-24T11:44:45.919Z,4.25
2018-07-24T11:47:16.906Z,4.50
2018-07-24T11:49:47.151Z,4.40
2018-07-24T11:52:17.959Z,4.17
2018-07-24T11:54:48.339Z,4.37
2018-07-24T11:57:18.599Z,4.25
2018-07-24T11:59:49.024Z,4.40
2018-07-24T12:02:19.282Z,4.25
2018-07-24T12:04:49.566Z,3.95
2018-07-24T12:07:19.894Z,4.22
2018-07-24T12:09:50.174Z,4.10
2018-07-24T12:12:38.722Z,4.58
2018-07-24T12:15:09.299Z,4.05
2018-07-24T12:17:39.758Z,4.28
2018-07-24T12:20:10.072Z,4.83
2018-07-24T12:22:40.267Z,4.50
2018-07-24T12:25:10.718Z,4.10
2018-07-24T12:27:41.070Z,4.87
2018-07-24T12:30:11.385Z,4.25
2018-07-24T12:32:41.593Z,3.98
2018-07-24T12:35:12.007Z,3.62
2018-07-24T12:37:42.276Z,3.60
2018-07-24T12:40:12.626Z,3.83
2018-07-24T12:42:42.871Z,4.05
2018-07-24T12:45:13.202Z,4.28
2018-07-24T12:47:43.570Z,3.70
2018-07-24T12:50:13.630Z,3.90
2018-07-24T12:52:43.907Z,3.85
2018-07-24T12:55:14.139Z,4.22
2018-07-24T12:57:44.383Z,4.12
2018-07-24T13:00:14.603Z,4.15
2018-07-24T13:02:44.878Z,3.80
2018-07-24T13:05:15.146Z,4.10
2018-07-24T13:07:44.699Z,4.03
2018-07-24T13:10:15.026Z,4.03
2018-07-24T13:12:45.161Z,3.90
2018-07-24T13:15:15.359Z,3.70
2018-07-24T13:17:49.565Z,3.67
2018-07-24T13:20:19.909Z,3.52
2018-07-24T13:22:50.302Z,3.77
2018-07-24T13:25:20.520Z,3.65
2018-07-24T13:27:50.718Z,3.40
2018-07-24T13:30:21.025Z,3.65
2018-07-24T13:32:51.133Z,3.35
2018-07-24T13:35:21.282Z,3.62
2018-07-24T13:37:51.440Z,3.60
2018-07-24T13:40:22.002Z,3.80
2018-07-24T13:42:52.195Z,3.77
2018-07-24T13:45:22.520Z,3.55
2018-07-24T13:47:52.913Z,3.70
2018-07-24T13:50:23.118Z,3.45
2018-07-24T13:52:53.423Z,3.45
2018-07-24T13:55:23.939Z,3.50
2018-07-24T13:57:54.335Z,3.60
2018-07-24T14:00:24.629Z,4.15
2018-07-24T14:02:55.314Z,3.12
2018-07-24T14:05:25.888Z,3.52
2018-07-24T14:07:56.360Z,3.77
2018-07-24T14:10:26.695Z,4.12
2018-07-24T14:12:57.223Z,3.60
2018-07-24T14:15:27.533Z,3.83
2018-07-24T14:18:26.511Z,3.62
2018-07-24T14:20:56.968Z,3.50
2018-07-24T14:23:27.346Z,3.72
2018-07-24T14:25:57.730Z,3.58
2018-07-24T14:28:28.127Z,3.58
2018-07-24T14:30:58.454Z,3.42
2018-07-24T14:33:28.754Z,3.05
2018-07-24T14:35:59.118Z,3.42
2018-07-24T14:38:29.406Z,3.08
2018-07-24T14:40:59.703Z,3.20
2018-07-24T14:43:29.916Z,3.58
2018-07-24T14:46:00.066Z,3.22
2018-07-24T14:48:29.834Z,3.15
2018-07-24T14:51:00.128Z,3.42
2018-07-24T14:53:30.478Z,3.27
2018-07-24T14:56:00.598Z,3.40
2018-07-24T14:58:31.063Z,3.67
2018-07-24T15:01:01.150Z,3.58
2018-07-24T15:03:31.463Z,3.10
2018-07-24T15:06:01.686Z,3.20
2018-07-24T15:08:31.898Z,3.12
2018-07-24T15:11:02.148Z,3.00
2018-07-24T15:13:32.456Z,2.90
2018-07-24T15:16:02.722Z,2.72
2018-07-24T15:18:32.939Z,3.10
2018-07-24T15:21:03.065Z,3.20
2018-07-24T15:23:33.332Z,3.02
2018-07-24T15:26:03.537Z,2.98
2018-07-24T15:28:33.900Z,2.85
2018-07-24T15:31:28.011Z,2.95
2018-07-24T15:33:58.294Z,3.40
2018-07-24T15:36:28.399Z,3.10
2018-07-24T15:38:58.210Z,3.30
2018-07-24T15:41:28.562Z,3.20
2018-07-24T15:43:58.606Z,3.30
2018-07-24T15:46:28.870Z,3.50
2018-07-24T15:48:59.075Z,3.35
2018-07-24T15:51:29.359Z,3.12
2018-07-24T15:53:59.462Z,2.77
2018-07-24T15:56:29.719Z,3.20
2018-07-24T15:58:59.978Z,3.25
2018-07-24T16:01:30.386Z,2.85
2018-07-24T16:04:00.740Z,2.95
2018-07-24T16:06:31.034Z,3.30
2018-07-24T16:09:13.631Z,3.15
2018-07-24T16:11:43.964Z,3.52
2018-07-24T16:14:14.314Z,3.40
2018-07-24T16:16:44.577Z,3.52
2018-07-24T16:19:14.751Z,3.22
2018-07-24T16:21:44.940Z,3.00
2018-07-24T16:24:15.206Z,3.15
2018-07-24T16:26:45.422Z,3.35
2018-07-24T16:29:15.569Z,3.40
2018-07-24T16:31:45.979Z,3.22
2018-07-24T16:34:16.251Z,3.37
2018-07-24T16:36:46.714Z,3.15
2018-07-24T16:39:17.204Z,3.20
2018-07-24T16:41:47.839Z,3.25
2018-07-24T16:44:18.534Z,3.08
2018-07-24T16:46:49.242Z,3.25
2018-07-24T16:49:19.805Z,3.00
2018-07-24T16:51:50.255Z,3.35
2018-07-24T16:54:20.630Z,3.45
2018-07-24T16:56:51.835Z,3.37
2018-07-24T16:59:22.486Z,4.53
2018-07-24T17:01:58.615Z,3.75
2018-07-24T17:04:29.506Z,4.00
2018-07-24T17:06:59.995Z,3.90
2018-07-24T17:09:30.514Z,3.72
2018-07-24T17:12:01.010Z,4.55
2018-07-24T17:14:35.448Z,3.72
2018-07-24T17:17:05.918Z,3.67
2018-07-24T17:19:36.311Z,4.03
2018-07-24T17:22:06.908Z,3.92
2018-07-24T17:24:37.262Z,4.00
2018-07-24T17:27:07.410Z,4.28
2018-07-24T17:29:38.106Z,4.22
2018-07-24T17:32:10.871Z,4.40
2018-07-24T17:34:41.469Z,4.62
2018-07-24T17:37:12.555Z,4.50
2018-07-24T17:39:43.026Z,5.03
2018-07-24T17:42:13.717Z,4.60
2018-07-24T17:44:44.476Z,4.97
2018-07-24T17:47:14.992Z,4.65
2018-07-24T17:49:45.394Z,4.58
2018-07-24T17:52:15.775Z,4.92
2018-07-24T17:54:47.072Z,4.80
2018-07-24T17:57:17.924Z,5.17
2018-07-24T17:59:49.534Z,5.53
2018-07-24T18:02:20.439Z,5.10
2018-07-24T18:04:51.502Z,5.30
2018-07-24T18:07:22.737Z,4.97
2018-07-24T18:09:53.575Z,5.13
2018-07-24T18:12:24.539Z,5.10
2018-07-24T18:14:55.320Z,5.60
2018-07-24T18:17:26.212Z,5.27
2018-07-24T18:19:57.192Z,5.27
2018-07-24T18:22:27.833Z,5.27
2018-07-24T18:24:58.891Z,5.40
2018-07-24T18:27:33.279Z,5.13
2018-07-24T18:30:04.626Z,5.40
2018-07-24T18:32:35.861Z,4.73
2018-07-24T18:35:07.151Z,4.90
2018-07-24T18:37:38.805Z,5.37
2018-07-24T18:40:10.128Z,5.40
2018-07-24T18:42:40.433Z,5.03
2018-07-24T18:45:16.205Z,5.10
2018-07-24T18:47:56.565Z,5.03
2018-07-24T18:53:26.988Z,6.23
2018-07-24T18:56:14.755Z,5.70
2018-07-24T18:58:45.394Z,5.87
2018-07-24T19:01:16.021Z,6.30
2018-07-24T19:03:46.304Z,5.73
2018-07-24T19:06:17.612Z,6.27
2018-07-24T19:08:48.103Z,5.90
2018-07-24T19:11:18.635Z,5.80
2018-07-24T19:13:49.415Z,5.50
2018-07-24T19:16:25.638Z,6.50
2018-07-24T19:18:56.184Z,6.00
2018-07-24T19:21:26.922Z,6.20
2018-07-24T19:23:57.700Z,6.33
2018-07-24T19:26:28.395Z,6.03
2018-07-24T19:28:59.090Z,6.87
2018-07-24T19:31:57.834Z,6.80
2018-07-24T19:34:28.215Z,6.93
2018-07-24T19:36:59.157Z,6.43
2018-07-24T19:39:29.974Z,6.50
2018-07-24T19:42:00.955Z,6.83
2018-07-24T19:44:43.220Z,6.63
2018-07-24T19:47:14.158Z,6.73
2018-07-24T19:49:44.743Z,6.33
2018-07-24T19:52:16.031Z,6.73
2018-07-24T19:54:47.055Z,7.07
2018-07-24T19:57:20.514Z,5.80
2018-07-24T19:59:51.351Z,6.93
2018-07-24T20:02:23.071Z,6.77
2018-07-24T20:04:54.081Z,6.40
2018-07-24T20:07:39.091Z,7.53
2018-07-24T20:10:09.644Z,7.07
2018-07-24T20:12:52.204Z,7.33
2018-07-24T20:15:23.089Z,6.93
2018-07-24T20:17:54.276Z,6.53
2018-07-24T20:20:25.078Z,6.67
2018-07-24T20:22:56.321Z,6.70
2018-07-24T20:25:27.140Z,6.77
2018-07-24T20:28:13.695Z,7.57
2018-07-24T20:30:44.145Z,6.93
2018-07-24T20:33:19.989Z,6.93
2018-07-24T20:35:50.700Z,7.97
2018-07-24T20:38:21.168Z,6.93
2018-07-24T20:40:51.955Z,6.73
2018-07-24T20:43:22.375Z,7.30
2018-07-24T20:45:53.041Z,7.40
2018-07-24T20:48:24.291Z,7.57
2018-07-24T20:51:19.369Z,6.77
2018-07-24T20:53:50.576Z,7.20
2018-07-24T20:56:21.604Z,7.00
2018-07-24T21:01:52.896Z,7.43
2018-07-24T21:04:23.973Z,7.30
2018-07-24T21:06:54.929Z,7.07
2018-07-24T21:09:25.777Z,6.97
2018-07-24T21:11:56.323Z,6.90
2018-07-24T21:14:26.855Z,7.67
2018-07-24T21:16:58.952Z,7.73
2018-07-24T21:19:29.979Z,7.33
2018-07-24T21:22:00.655Z,7.20
2018-07-24T21:24:32.499Z,7.70
2018-07-24T21:27:03.480Z,7.90
2018-07-24T21:29:39.414Z,8.40
2018-07-24T21:32:10.493Z,7.40
2018-07-24T21:34:46.516Z,7.50
2018-07-24T21:37:17.200Z,7.63
2018-07-24T21:39:48.172Z,7.67
2018-07-24T21:42:19.850Z,7.87
2018-07-24T21:44:50.788Z,7.70
2018-07-24T21:47:22.259Z,7.73
2018-07-24T21:49:58.589Z,7.50
2018-07-24T21:52:29.268Z,7.57
2018-07-24T21:55:00.833Z,8.10
2018-07-24T21:57:32.303Z,7.60
2018-07-24T22:00:03.175Z,8.60
2018-07-24T22:02:34.680Z,8.93
2018-07-24T22:05:13.602Z,7.97
2018-07-24T22:07:44.690Z,7.27
2018-07-24T22:10:20.152Z,7.77
2018-07-24T22:12:50.757Z,7.87
2018-07-24T22:15:26.135Z,8.23
2018-07-24T22:17:57.198Z,7.73
2018-07-24T22:20:31.230Z,7.80
2018-07-24T22:23:01.876Z,7.60
2018-07-24T22:25:32.321Z,7.43
2018-07-24T22:28:10.130Z,7.73
2018-07-24T22:30:42.068Z,7.87
2018-07-24T22:33:12.774Z,7.47
2018-07-24T22:35:43.493Z,7.67
2018-07-24T22:38:14.030Z,7.70
2018-07-24T22:40:44.837Z,7.80
2018-07-24T22:43:15.389Z,7.07
2018-07-24T22:45:45.971Z,8.10
2018-07-24T22:48:16.495Z,7.97
2018-07-24T22:50:47.067Z,8.93
2018-07-24T22:53:17.648Z,9.07
2018-07-24T22:55:48.230Z,8.23
2018-07-24T22:58:18.727Z,8.33
2018-07-24T23:00:49.273Z,9.07
2018-07-24T23:03:20.039Z,8.03
2018-07-24T23:05:50.903Z,8.57
2018-07-24T23:08:33.369Z,7.83
2018-07-24T23:11:03.825Z,8.20
2018-07-24T23:13:34.449Z,8.03
2018-07-24T23:16:05.570Z,8.67
2018-07-24T23:18:36.594Z,8.40
2018-07-24T23:21:08.157Z,8.23
2018-07-24T23:23:39.236Z,9.10
2018-07-24T23:26:10.378Z,9.43
2018-07-24T23:28:41.341Z,8.13
2018-07-24T23:31:12.744Z,8.23
2018-07-24T23:33:43.408Z,7.80
2018-07-24T23:36:15.116Z,7.87
2018-07-24T23:38:46.332Z,8.43
2018-07-24T23:41:17.141Z,7.93
2018-07-24T23:43:52.876Z,8.30
2018-07-24T23:46:23.367Z,7.47
2018-07-24T23:48:54.381Z,8.63
2018-07-24T23:51:55.111Z,8.30
2018-07-24T23:54:25.704Z,7.87
2018-07-24T23:56:56.613Z,8.80
2018-07-24T23:59:27.163Z,8.87
